sensor_id;sensor_type;location;lat;lon;timestamp;P1;durP1;ratioP1;P2;durP2;ratioP2
57337;SDS011;43173;50.980;18.204;2023-08-21T00:01:42;19.00;;;16.40;;
57337;SDS011;43173;50.980;18.204;2023-08-21T00:04:08;18.80;;;16.70;;
57337;SDS011;43173;50.980;18.204;2023-08-21T00:06:34;21.50;;;16.10;;
57337;SDS011;43173;50.980;18.204;2023-08-21T00:09:01;18.90;;;16.70;;
57337;SDS011;43173;50.980;18.204;2023-08-21T00:11:27;20.80;;;16.20;;
57337;SDS011;43173;50.980;18.204;2023-08-21T00:13:53;21.40;;;16.70;;
57337;SDS011;43173;50.980;18.204;2023-08-21T00:16:19;21.50;;;16.80;;
57337;SDS011;43173;50.980;18.204;2023-08-21T00:18:45;22.70;;;16.50;;
57337;SDS011;43173;50.980;18.204;2023-08-21T00:21:10;20.20;;;15.70;;
57337;SDS011;43173;50.980;18.204;2023-08-21T00:23:36;19.90;;;16.80;;
57337;SDS011;43173;50.980;18.204;2023-08-21T00:26:02;18.30;;;15.80;;
57337;SDS011;43173;50.980;18.204;2023-08-21T00:28:27;20.30;;;16.50;;
57337;SDS011;43173;50.980;18.204;2023-08-21T00:31:04;22.00;;;17.20;;
57337;SDS011;43173;50.980;18.204;2023-08-21T00:33:31;20.00;;;16.30;;
57337;SDS011;43173;50.980;18.204;2023-08-21T00:35:57;18.70;;;16.70;;
57337;SDS011;43173;50.980;18.204;2023-08-21T00:38:23;18.60;;;15.60;;
57337;SDS011;43173;50.980;18.204;2023-08-21T00:40:49;19.00;;;16.50;;
57337;SDS011;43173;50.980;18.204;2023-08-21T00:43:16;18.70;;;16.80;;
57337;SDS011;43173;50.980;18.204;2023-08-21T00:45:42;20.00;;;17.00;;
57337;SDS011;43173;50.980;18.204;2023-08-21T00:48:09;20.00;;;16.60;;
57337;SDS011;43173;50.980;18.204;2023-08-21T00:50:36;20.30;;;17.30;;
57337;SDS011;43173;50.980;18.204;2023-08-21T00:53:01;18.90;;;16.90;;
57337;SDS011;43173;50.980;18.204;2023-08-21T00:55:29;24.90;;;16.80;;
57337;SDS011;43173;50.980;18.204;2023-08-21T00:57:55;20.80;;;17.60;;
57337;SDS011;43173;50.980;18.204;2023-08-21T01:00:21;20.70;;;18.10;;
57337;SDS011;43173;50.980;18.204;2023-08-21T01:02:47;21.40;;;18.60;;
57337;SDS011;43173;50.980;18.204;2023-08-21T01:05:13;24.80;;;18.40;;
57337;SDS011;43173;50.980;18.204;2023-08-21T01:07:46;21.10;;;18.80;;
57337;SDS011;43173;50.980;18.204;2023-08-21T01:10:26;21.90;;;18.80;;
57337;SDS011;43173;50.980;18.204;2023-08-21T01:15:22;22.80;;;19.30;;
57337;SDS011;43173;50.980;18.204;2023-08-21T01:17:48;24.50;;;19.20;;
57337;SDS011;43173;50.980;18.204;2023-08-21T01:20:14;22.20;;;19.60;;
57337;SDS011;43173;50.980;18.204;2023-08-21T01:22:41;23.10;;;20.60;;
57337;SDS011;43173;50.980;18.204;2023-08-21T01:25:15;23.10;;;20.30;;
57337;SDS011;43173;50.980;18.204;2023-08-21T01:27:42;21.10;;;18.70;;
57337;SDS011;43173;50.980;18.204;2023-08-21T01:30:10;25.00;;;20.70;;
57337;SDS011;43173;50.980;18.204;2023-08-21T01:32:46;21.60;;;19.20;;
57337;SDS011;43173;50.980;18.204;2023-08-21T01:35:16;21.90;;;19.50;;
57337;SDS011;43173;50.980;18.204;2023-08-21T01:37:42;22.90;;;19.60;;
57337;SDS011;43173;50.980;18.204;2023-08-21T01:40:08;23.00;;;19.80;;
57337;SDS011;43173;50.980;18.204;2023-08-21T01:42:34;25.50;;;19.80;;
57337;SDS011;43173;50.980;18.204;2023-08-21T01:45:00;24.70;;;22.00;;
57337;SDS011;43173;50.980;18.204;2023-08-21T01:47:25;23.60;;;20.80;;
57337;SDS011;43173;50.980;18.204;2023-08-21T01:49:51;24.10;;;21.50;;
57337;SDS011;43173;50.980;18.204;2023-08-21T01:52:18;24.20;;;20.90;;
57337;SDS011;43173;50.980;18.204;2023-08-21T01:54:44;27.30;;;21.10;;
57337;SDS011;43173;50.980;18.204;2023-08-21T01:57:10;23.70;;;20.10;;
57337;SDS011;43173;50.980;18.204;2023-08-21T01:59:36;23.00;;;20.60;;
57337;SDS011;43173;50.980;18.204;2023-08-21T02:02:01;26.30;;;21.50;;
57337;SDS011;43173;50.980;18.204;2023-08-21T02:04:27;24.50;;;20.60;;
57337;SDS011;43173;50.980;18.204;2023-08-21T02:06:53;23.90;;;20.60;;
57337;SDS011;43173;50.980;18.204;2023-08-21T02:09:18;23.20;;;20.70;;
57337;SDS011;43173;50.980;18.204;2023-08-21T02:11:44;24.10;;;21.30;;
57337;SDS011;43173;50.980;18.204;2023-08-21T02:14:10;23.90;;;21.30;;
57337;SDS011;43173;50.980;18.204;2023-08-21T02:16:36;27.90;;;22.10;;
57337;SDS011;43173;50.980;18.204;2023-08-21T02:19:02;25.10;;;21.70;;
57337;SDS011;43173;50.980;18.204;2023-08-21T02:21:28;25.10;;;22.30;;
57337;SDS011;43173;50.980;18.204;2023-08-21T02:23:53;25.90;;;22.20;;
57337;SDS011;43173;50.980;18.204;2023-08-21T02:26:19;26.90;;;23.10;;
57337;SDS011;43173;50.980;18.204;2023-08-21T02:28:45;26.00;;;23.30;;
57337;SDS011;43173;50.980;18.204;2023-08-21T02:31:12;26.00;;;23.10;;
57337;SDS011;43173;50.980;18.204;2023-08-21T02:33:38;28.20;;;21.60;;
57337;SDS011;43173;50.980;18.204;2023-08-21T02:36:04;27.30;;;24.00;;
57337;SDS011;43173;50.980;18.204;2023-08-21T02:38:30;26.30;;;23.50;;
57337;SDS011;43173;50.980;18.204;2023-08-21T02:40:55;27.80;;;23.70;;
57337;SDS011;43173;50.980;18.204;2023-08-21T02:43:21;27.50;;;24.00;;
57337;SDS011;43173;50.980;18.204;2023-08-21T02:45:46;28.30;;;23.60;;
57337;SDS011;43173;50.980;18.204;2023-08-21T02:48:12;28.60;;;24.10;;
57337;SDS011;43173;50.980;18.204;2023-08-21T02:50:38;28.30;;;24.00;;
57337;SDS011;43173;50.980;18.204;2023-08-21T02:53:04;27.70;;;23.30;;
57337;SDS011;43173;50.980;18.204;2023-08-21T02:55:30;27.70;;;23.70;;
57337;SDS011;43173;50.980;18.204;2023-08-21T02:57:55;28.10;;;22.70;;
57337;SDS011;43173;50.980;18.204;2023-08-21T03:00:21;28.20;;;22.70;;
57337;SDS011;43173;50.980;18.204;2023-08-21T03:02:47;26.80;;;23.10;;
57337;SDS011;43173;50.980;18.204;2023-08-21T03:05:12;25.70;;;21.80;;
57337;SDS011;43173;50.980;18.204;2023-08-21T03:07:39;24.50;;;21.90;;
57337;SDS011;43173;50.980;18.204;2023-08-21T03:10:05;25.70;;;23.10;;
57337;SDS011;43173;50.980;18.204;2023-08-21T03:12:32;26.10;;;23.20;;
57337;SDS011;43173;50.980;18.204;2023-08-21T03:14:58;25.30;;;22.50;;
57337;SDS011;43173;50.980;18.204;2023-08-21T03:17:23;27.40;;;22.70;;
57337;SDS011;43173;50.980;18.204;2023-08-21T03:19:49;26.00;;;22.70;;
57337;SDS011;43173;50.980;18.204;2023-08-21T03:22:15;26.20;;;23.40;;
57337;SDS011;43173;50.980;18.204;2023-08-21T03:24:41;28.10;;;23.00;;
57337;SDS011;43173;50.980;18.204;2023-08-21T03:27:06;29.70;;;23.60;;
57337;SDS011;43173;50.980;18.204;2023-08-21T03:29:32;25.40;;;22.70;;
57337;SDS011;43173;50.980;18.204;2023-08-21T03:31:58;31.40;;;23.40;;
57337;SDS011;43173;50.980;18.204;2023-08-21T03:34:23;25.60;;;22.70;;
57337;SDS011;43173;50.980;18.204;2023-08-21T03:36:49;27.00;;;22.30;;
57337;SDS011;43173;50.980;18.204;2023-08-21T03:39:15;28.10;;;24.30;;
57337;SDS011;43173;50.980;18.204;2023-08-21T03:41:41;31.40;;;24.70;;
57337;SDS011;43173;50.980;18.204;2023-08-21T03:44:06;28.40;;;22.80;;
57337;SDS011;43173;50.980;18.204;2023-08-21T03:46:32;25.10;;;21.50;;
57337;SDS011;43173;50.980;18.204;2023-08-21T03:48:58;22.70;;;20.30;;
57337;SDS011;43173;50.980;18.204;2023-08-21T03:51:23;22.60;;;20.10;;
57337;SDS011;43173;50.980;18.204;2023-08-21T03:53:49;23.20;;;20.60;;
57337;SDS011;43173;50.980;18.204;2023-08-21T03:56:15;26.00;;;23.20;;
57337;SDS011;43173;50.980;18.204;2023-08-21T03:58:40;26.90;;;23.00;;
57337;SDS011;43173;50.980;18.204;2023-08-21T04:01:06;27.40;;;22.90;;
57337;SDS011;43173;50.980;18.204;2023-08-21T04:03:32;27.90;;;23.40;;
57337;SDS011;43173;50.980;18.204;2023-08-21T04:05:58;26.60;;;22.70;;
57337;SDS011;43173;50.980;18.204;2023-08-21T04:08:24;25.50;;;22.60;;
57337;SDS011;43173;50.980;18.204;2023-08-21T04:10:50;29.40;;;23.60;;
57337;SDS011;43173;50.980;18.204;2023-08-21T04:13:18;25.80;;;21.80;;
57337;SDS011;43173;50.980;18.204;2023-08-21T04:15:44;27.40;;;24.40;;
57337;SDS011;43173;50.980;18.204;2023-08-21T04:18:11;26.70;;;22.90;;
57337;SDS011;43173;50.980;18.204;2023-08-21T04:20:37;26.20;;;23.10;;
57337;SDS011;43173;50.980;18.204;2023-08-21T04:23:03;28.20;;;23.00;;
57337;SDS011;43173;50.980;18.204;2023-08-21T04:25:28;25.80;;;22.80;;
57337;SDS011;43173;50.980;18.204;2023-08-21T04:27:54;26.20;;;23.20;;
57337;SDS011;43173;50.980;18.204;2023-08-21T04:30:20;28.10;;;23.10;;
57337;SDS011;43173;50.980;18.204;2023-08-21T04:32:46;26.00;;;22.60;;
57337;SDS011;43173;50.980;18.204;2023-08-21T04:35:12;26.40;;;21.10;;
57337;SDS011;43173;50.980;18.204;2023-08-21T04:37:42;25.70;;;22.10;;
57337;SDS011;43173;50.980;18.204;2023-08-21T04:42:36;28.10;;;23.00;;
57337;SDS011;43173;50.980;18.204;2023-08-21T04:45:02;32.60;;;24.80;;
57337;SDS011;43173;50.980;18.204;2023-08-21T04:47:29;31.20;;;26.50;;
57337;SDS011;43173;50.980;18.204;2023-08-21T04:49:55;33.70;;;27.20;;
57337;SDS011;43173;50.980;18.204;2023-08-21T04:52:22;28.70;;;25.50;;
57337;SDS011;43173;50.980;18.204;2023-08-21T04:54:48;31.90;;;26.60;;
57337;SDS011;43173;50.980;18.204;2023-08-21T04:57:14;33.00;;;26.90;;
57337;SDS011;43173;50.980;18.204;2023-08-21T04:59:40;39.00;;;29.70;;
57337;SDS011;43173;50.980;18.204;2023-08-21T05:02:06;33.70;;;29.00;;
57337;SDS011;43173;50.980;18.204;2023-08-21T05:04:35;36.30;;;30.30;;
57337;SDS011;43173;50.980;18.204;2023-08-21T05:07:01;44.30;;;33.80;;
57337;SDS011;43173;50.980;18.204;2023-08-21T05:09:27;46.70;;;32.40;;
57337;SDS011;43173;50.980;18.204;2023-08-21T05:11:53;42.50;;;31.90;;
57337;SDS011;43173;50.980;18.204;2023-08-21T05:14:19;43.00;;;33.50;;
57337;SDS011;43173;50.980;18.204;2023-08-21T05:16:45;42.30;;;33.70;;
57337;SDS011;43173;50.980;18.204;2023-08-21T05:19:12;39.50;;;33.00;;
57337;SDS011;43173;50.980;18.204;2023-08-21T05:21:39;42.30;;;34.00;;
57337;SDS011;43173;50.980;18.204;2023-08-21T05:24:04;40.00;;;31.40;;
57337;SDS011;43173;50.980;18.204;2023-08-21T05:26:30;40.50;;;32.10;;
57337;SDS011;43173;50.980;18.204;2023-08-21T05:28:56;36.60;;;31.40;;
57337;SDS011;43173;50.980;18.204;2023-08-21T05:31:22;41.00;;;30.80;;
57337;SDS011;43173;50.980;18.204;2023-08-21T05:33:48;38.60;;;31.00;;
57337;SDS011;43173;50.980;18.204;2023-08-21T05:36:14;38.30;;;28.30;;
57337;SDS011;43173;50.980;18.204;2023-08-21T05:38:39;37.70;;;28.20;;
57337;SDS011;43173;50.980;18.204;2023-08-21T05:41:05;31.60;;;24.70;;
57337;SDS011;43173;50.980;18.204;2023-08-21T05:43:30;26.00;;;23.20;;
57337;SDS011;43173;50.980;18.204;2023-08-21T05:45:56;28.70;;;24.00;;
57337;SDS011;43173;50.980;18.204;2023-08-21T05:48:22;29.10;;;25.20;;
57337;SDS011;43173;50.980;18.204;2023-08-21T05:50:51;31.70;;;24.60;;
57337;SDS011;43173;50.980;18.204;2023-08-21T05:53:17;30.20;;;23.70;;
57337;SDS011;43173;50.980;18.204;2023-08-21T05:55:43;27.40;;;23.60;;
57337;SDS011;43173;50.980;18.204;2023-08-21T05:58:09;25.50;;;21.70;;
57337;SDS011;43173;50.980;18.204;2023-08-21T06:00:34;27.30;;;21.70;;
57337;SDS011;43173;50.980;18.204;2023-08-21T06:03:00;23.10;;;20.70;;
57337;SDS011;43173;50.980;18.204;2023-08-21T06:05:26;23.10;;;18.90;;
57337;SDS011;43173;50.980;18.204;2023-08-21T06:07:52;22.10;;;18.90;;
57337;SDS011;43173;50.980;18.204;2023-08-21T06:10:18;26.10;;;17.90;;
57337;SDS011;43173;50.980;18.204;2023-08-21T06:12:43;21.00;;;16.00;;
57337;SDS011;43173;50.980;18.204;2023-08-21T06:15:09;16.20;;;14.40;;
57337;SDS011;43173;50.980;18.204;2023-08-21T06:17:36;14.80;;;13.30;;
57337;SDS011;43173;50.980;18.204;2023-08-21T06:20:02;13.20;;;11.70;;
57337;SDS011;43173;50.980;18.204;2023-08-21T06:22:34;12.80;;;11.40;;
57337;SDS011;43173;50.980;18.204;2023-08-21T06:25:01;12.30;;;11.00;;
57337;SDS011;43173;50.980;18.204;2023-08-21T06:27:27;13.70;;;11.80;;
57337;SDS011;43173;50.980;18.204;2023-08-21T06:29:52;13.70;;;11.70;;
57337;SDS011;43173;50.980;18.204;2023-08-21T06:32:18;13.40;;;12.00;;
57337;SDS011;43173;50.980;18.204;2023-08-21T06:34:44;14.00;;;11.50;;
57337;SDS011;43173;50.980;18.204;2023-08-21T06:37:10;12.50;;;11.20;;
57337;SDS011;43173;50.980;18.204;2023-08-21T06:39:35;15.60;;;12.00;;
57337;SDS011;43173;50.980;18.204;2023-08-21T06:42:01;13.10;;;11.70;;
57337;SDS011;43173;50.980;18.204;2023-08-21T06:44:27;13.80;;;11.90;;
57337;SDS011;43173;50.980;18.204;2023-08-21T06:46:53;15.00;;;12.40;;
57337;SDS011;43173;50.980;18.204;2023-08-21T06:49:19;12.80;;;11.50;;
57337;SDS011;43173;50.980;18.204;2023-08-21T06:51:44;13.30;;;11.90;;
57337;SDS011;43173;50.980;18.204;2023-08-21T06:54:10;14.70;;;11.80;;
57337;SDS011;43173;50.980;18.204;2023-08-21T06:56:36;12.00;;;10.60;;
57337;SDS011;43173;50.980;18.204;2023-08-21T06:59:02;11.90;;;10.70;;
57337;SDS011;43173;50.980;18.204;2023-08-21T07:01:28;12.00;;;10.60;;
57337;SDS011;43173;50.980;18.204;2023-08-21T07:03:54;12.40;;;10.70;;
57337;SDS011;43173;50.980;18.204;2023-08-21T07:06:20;11.70;;;10.30;;
57337;SDS011;43173;50.980;18.204;2023-08-21T07:08:45;11.60;;;10.40;;
57337;SDS011;43173;50.980;18.204;2023-08-21T07:11:11;11.50;;;10.30;;
57337;SDS011;43173;50.980;18.204;2023-08-21T07:13:38;15.30;;;12.40;;
57337;SDS011;43173;50.980;18.204;2023-08-21T07:16:04;14.00;;;12.30;;
57337;SDS011;43173;50.980;18.204;2023-08-21T07:18:35;12.60;;;10.50;;
57337;SDS011;43173;50.980;18.204;2023-08-21T07:21:01;12.70;;;11.40;;
57337;SDS011;43173;50.980;18.204;2023-08-21T07:23:32;13.10;;;11.40;;
57337;SDS011;43173;50.980;18.204;2023-08-21T07:25:59;12.90;;;11.50;;
57337;SDS011;43173;50.980;18.204;2023-08-21T07:28:27;11.40;;;10.30;;
57337;SDS011;43173;50.980;18.204;2023-08-21T07:30:57;12.20;;;10.80;;
57337;SDS011;43173;50.980;18.204;2023-08-21T07:33:23;11.30;;;10.10;;
57337;SDS011;43173;50.980;18.204;2023-08-21T07:36:01;12.10;;;9.40;;
57337;SDS011;43173;50.980;18.204;2023-08-21T07:38:28;10.30;;;9.00;;
57337;SDS011;43173;50.980;18.204;2023-08-21T07:43:37;10.00;;;9.00;;
57337;SDS011;43173;50.980;18.204;2023-08-21T07:46:06;9.90;;;9.00;;
57337;SDS011;43173;50.980;18.204;2023-08-21T07:48:32;10.80;;;9.80;;
57337;SDS011;43173;50.980;18.204;2023-08-21T07:50:58;9.20;;;8.30;;
57337;SDS011;43173;50.980;18.204;2023-08-21T07:53:25;10.00;;;9.00;;
57337;SDS011;43173;50.980;18.204;2023-08-21T07:55:51;10.50;;;7.90;;
57337;SDS011;43173;50.980;18.204;2023-08-21T07:58:17;8.70;;;7.90;;
57337;SDS011;43173;50.980;18.204;2023-08-21T08:00:43;9.80;;;8.20;;
57337;SDS011;43173;50.980;18.204;2023-08-21T08:03:09;8.50;;;7.40;;
57337;SDS011;43173;50.980;18.204;2023-08-21T08:05:36;7.80;;;7.00;;
57337;SDS011;43173;50.980;18.204;2023-08-21T08:08:02;8.00;;;7.20;;
57337;SDS011;43173;50.980;18.204;2023-08-21T08:10:28;7.60;;;6.70;;
57337;SDS011;43173;50.980;18.204;2023-08-21T08:12:54;6.70;;;6.00;;
57337;SDS011;43173;50.980;18.204;2023-08-21T08:15:20;7.30;;;6.60;;
57337;SDS011;43173;50.980;18.204;2023-08-21T08:17:46;7.40;;;6.40;;
57337;SDS011;43173;50.980;18.204;2023-08-21T08:20:12;6.80;;;5.90;;
57337;SDS011;43173;50.980;18.204;2023-08-21T08:22:39;7.30;;;6.60;;
57337;SDS011;43173;50.980;18.204;2023-08-21T08:25:04;7.40;;;6.50;;
57337;SDS011;43173;50.980;18.204;2023-08-21T08:27:34;6.80;;;6.10;;
57337;SDS011;43173;50.980;18.204;2023-08-21T08:29:59;7.30;;;6.20;;
57337;SDS011;43173;50.980;18.204;2023-08-21T08:32:25;7.10;;;6.20;;
57337;SDS011;43173;50.980;18.204;2023-08-21T08:34:52;7.40;;;6.10;;
57337;SDS011;43173;50.980;18.204;2023-08-21T08:37:18;7.70;;;6.90;;
57337;SDS011;43173;50.980;18.204;2023-08-21T08:39:45;8.20;;;6.80;;
57337;SDS011;43173;50.980;18.204;2023-08-21T08:42:12;7.20;;;6.50;;
57337;SDS011;43173;50.980;18.204;2023-08-21T08:44:38;7.30;;;6.50;;
57337;SDS011;43173;50.980;18.204;2023-08-21T08:47:04;7.70;;;6.80;;
57337;SDS011;43173;50.980;18.204;2023-08-21T08:49:30;8.40;;;6.70;;
57337;SDS011;43173;50.980;18.204;2023-08-21T08:51:57;10.80;;;6.80;;
57337;SDS011;43173;50.980;18.204;2023-08-21T08:54:23;8.20;;;7.20;;
57337;SDS011;43173;50.980;18.204;2023-08-21T08:56:53;8.50;;;7.70;;
57337;SDS011;43173;50.980;18.204;2023-08-21T08:59:18;8.80;;;7.00;;
57337;SDS011;43173;50.980;18.204;2023-08-21T09:01:44;7.60;;;6.80;;
57337;SDS011;43173;50.980;18.204;2023-08-21T09:04:10;8.60;;;7.20;;
57337;SDS011;43173;50.980;18.204;2023-08-21T09:06:36;8.40;;;6.80;;
57337;SDS011;43173;50.980;18.204;2023-08-21T09:09:03;10.50;;;7.60;;
57337;SDS011;43173;50.980;18.204;2023-08-21T09:11:30;8.00;;;6.50;;
57337;SDS011;43173;50.980;18.204;2023-08-21T09:13:55;8.00;;;7.10;;
57337;SDS011;43173;50.980;18.204;2023-08-21T09:16:22;7.90;;;6.60;;
57337;SDS011;43173;50.980;18.204;2023-08-21T09:18:50;7.20;;;6.50;;
57337;SDS011;43173;50.980;18.204;2023-08-21T09:21:21;7.30;;;6.60;;
57337;SDS011;43173;50.980;18.204;2023-08-21T09:23:47;7.10;;;6.40;;
57337;SDS011;43173;50.980;18.204;2023-08-21T09:26:20;9.90;;;6.70;;
57337;SDS011;43173;50.980;18.204;2023-08-21T09:28:49;7.40;;;6.70;;
57337;SDS011;43173;50.980;18.204;2023-08-21T09:31:16;7.10;;;6.40;;
57337;SDS011;43173;50.980;18.204;2023-08-21T09:36:30;7.40;;;6.80;;
57337;SDS011;43173;50.980;18.204;2023-08-21T09:38:56;7.70;;;6.90;;
57337;SDS011;43173;50.980;18.204;2023-08-21T09:41:23;7.10;;;6.40;;
57337;SDS011;43173;50.980;18.204;2023-08-21T09:43:49;7.50;;;6.70;;
57337;SDS011;43173;50.980;18.204;2023-08-21T09:46:15;6.80;;;6.10;;
57337;SDS011;43173;50.980;18.204;2023-08-21T09:48:43;7.50;;;6.70;;
57337;SDS011;43173;50.980;18.204;2023-08-21T09:51:10;6.70;;;6.10;;
57337;SDS011;43173;50.980;18.204;2023-08-21T09:53:37;7.30;;;6.60;;
57337;SDS011;43173;50.980;18.204;2023-08-21T09:56:06;7.70;;;6.90;;
57337;SDS011;43173;50.980;18.204;2023-08-21T09:58:34;6.70;;;6.00;;
57337;SDS011;43173;50.980;18.204;2023-08-21T10:01:01;6.50;;;5.90;;
57337;SDS011;43173;50.980;18.204;2023-08-21T10:03:34;7.50;;;6.60;;
57337;SDS011;43173;50.980;18.204;2023-08-21T10:06:01;10.20;;;7.80;;
57337;SDS011;43173;50.980;18.204;2023-08-21T10:08:27;8.30;;;6.60;;
57337;SDS011;43173;50.980;18.204;2023-08-21T10:10:52;6.80;;;6.20;;
57337;SDS011;43173;50.980;18.204;2023-08-21T10:13:19;6.60;;;5.90;;
57337;SDS011;43173;50.980;18.204;2023-08-21T10:15:45;6.80;;;6.20;;
57337;SDS011;43173;50.980;18.204;2023-08-21T10:18:18;6.20;;;5.60;;
57337;SDS011;43173;50.980;18.204;2023-08-21T10:20:45;6.50;;;5.80;;
57337;SDS011;43173;50.980;18.204;2023-08-21T10:23:10;6.80;;;6.20;;
57337;SDS011;43173;50.980;18.204;2023-08-21T10:25:49;8.70;;;7.10;;
57337;SDS011;43173;50.980;18.204;2023-08-21T10:30:45;6.80;;;6.20;;
57337;SDS011;43173;50.980;18.204;2023-08-21T10:33:11;7.00;;;6.30;;
57337;SDS011;43173;50.980;18.204;2023-08-21T10:35:36;8.70;;;6.20;;
57337;SDS011;43173;50.980;18.204;2023-08-21T10:43:39;6.60;;;6.00;;
57337;SDS011;43173;50.980;18.204;2023-08-21T10:46:06;6.70;;;5.90;;
57337;SDS011;43173;50.980;18.204;2023-08-21T10:48:34;9.10;;;6.20;;
57337;SDS011;43173;50.980;18.204;2023-08-21T10:51:04;5.80;;;5.20;;
57337;SDS011;43173;50.980;18.204;2023-08-21T10:53:31;7.30;;;6.10;;
57337;SDS011;43173;50.980;18.204;2023-08-21T10:56:04;6.40;;;5.80;;
57337;SDS011;43173;50.980;18.204;2023-08-21T10:58:34;6.40;;;5.80;;
57337;SDS011;43173;50.980;18.204;2023-08-21T11:01:03;5.90;;;5.30;;
57337;SDS011;43173;50.980;18.204;2023-08-21T11:03:28;5.80;;;5.30;;
57337;SDS011;43173;50.980;18.204;2023-08-21T11:06:02;6.40;;;5.70;;
57337;SDS011;43173;50.980;18.204;2023-08-21T11:21:50;4.80;;;3.80;;
57337;SDS011;43173;50.980;18.204;2023-08-21T11:24:16;6.10;;;5.50;;
57337;SDS011;43173;50.980;18.204;2023-08-21T11:26:42;5.40;;;4.10;;
57337;SDS011;43173;50.980;18.204;2023-08-21T11:29:08;4.80;;;4.40;;
57337;SDS011;43173;50.980;18.204;2023-08-21T11:31:33;5.60;;;4.40;;
57337;SDS011;43173;50.980;18.204;2023-08-21T11:33:59;4.40;;;4.00;;
57337;SDS011;43173;50.980;18.204;2023-08-21T11:36:24;4.80;;;3.90;;
57337;SDS011;43173;50.980;18.204;2023-08-21T11:41:52;4.20;;;3.80;;
57337;SDS011;43173;50.980;18.204;2023-08-21T11:44:18;4.00;;;3.70;;
57337;SDS011;43173;50.980;18.204;2023-08-21T11:46:44;4.60;;;3.00;;
57337;SDS011;43173;50.980;18.204;2023-08-21T11:49:10;3.80;;;3.30;;
57337;SDS011;43173;50.980;18.204;2023-08-21T11:51:39;4.50;;;3.60;;
57337;SDS011;43173;50.980;18.204;2023-08-21T11:54:04;4.10;;;3.50;;
57337;SDS011;43173;50.980;18.204;2023-08-21T11:56:31;4.10;;;3.70;;
57337;SDS011;43173;50.980;18.204;2023-08-21T11:58:57;4.30;;;3.60;;
57337;SDS011;43173;50.980;18.204;2023-08-21T12:01:24;4.30;;;3.90;;
57337;SDS011;43173;50.980;18.204;2023-08-21T12:03:50;4.00;;;3.60;;
57337;SDS011;43173;50.980;18.204;2023-08-21T12:06:20;3.50;;;3.20;;
57337;SDS011;43173;50.980;18.204;2023-08-21T12:08:47;4.50;;;3.70;;
57337;SDS011;43173;50.980;18.204;2023-08-21T12:11:12;4.30;;;3.90;;
57337;SDS011;43173;50.980;18.204;2023-08-21T12:13:38;5.60;;;3.90;;
57337;SDS011;43173;50.980;18.204;2023-08-21T12:16:04;6.00;;;3.90;;
57337;SDS011;43173;50.980;18.204;2023-08-21T12:18:29;4.00;;;3.60;;
57337;SDS011;43173;50.980;18.204;2023-08-21T12:20:55;4.60;;;4.20;;
57337;SDS011;43173;50.980;18.204;2023-08-21T12:23:21;4.70;;;3.90;;
57337;SDS011;43173;50.980;18.204;2023-08-21T12:25:47;4.60;;;3.80;;
57337;SDS011;43173;50.980;18.204;2023-08-21T12:28:13;4.40;;;4.00;;
57337;SDS011;43173;50.980;18.204;2023-08-21T12:30:39;4.90;;;3.50;;
57337;SDS011;43173;50.980;18.204;2023-08-21T12:33:04;4.20;;;3.80;;
57337;SDS011;43173;50.980;18.204;2023-08-21T12:35:30;3.90;;;3.50;;
57337;SDS011;43173;50.980;18.204;2023-08-21T12:37:56;4.10;;;3.70;;
57337;SDS011;43173;50.980;18.204;2023-08-21T12:40:23;4.50;;;3.80;;
57337;SDS011;43173;50.980;18.204;2023-08-21T12:42:49;4.10;;;3.80;;
57337;SDS011;43173;50.980;18.204;2023-08-21T12:45:15;4.30;;;3.80;;
57337;SDS011;43173;50.980;18.204;2023-08-21T12:47:42;4.50;;;3.50;;
57337;SDS011;43173;50.980;18.204;2023-08-21T12:50:08;4.30;;;3.70;;
57337;SDS011;43173;50.980;18.204;2023-08-21T12:52:34;4.40;;;4.00;;
57337;SDS011;43173;50.980;18.204;2023-08-21T12:54:59;4.40;;;4.00;;
57337;SDS011;43173;50.980;18.204;2023-08-21T12:57:29;5.00;;;3.70;;
57337;SDS011;43173;50.980;18.204;2023-08-21T12:59:54;4.70;;;4.30;;
57337;SDS011;43173;50.980;18.204;2023-08-21T13:02:20;4.20;;;3.80;;
57337;SDS011;43173;50.980;18.204;2023-08-21T13:04:49;4.30;;;3.20;;
57337;SDS011;43173;50.980;18.204;2023-08-21T13:07:14;4.50;;;3.80;;
57337;SDS011;43173;50.980;18.204;2023-08-21T13:09:40;4.30;;;3.90;;
57337;SDS011;43173;50.980;18.204;2023-08-21T13:12:06;3.60;;;3.30;;
57337;SDS011;43173;50.980;18.204;2023-08-21T13:14:33;5.70;;;4.10;;
57337;SDS011;43173;50.980;18.204;2023-08-21T13:16:59;4.30;;;3.90;;
57337;SDS011;43173;50.980;18.204;2023-08-21T13:19:25;4.40;;;3.90;;
57337;SDS011;43173;50.980;18.204;2023-08-21T13:21:51;4.30;;;3.90;;
57337;SDS011;43173;50.980;18.204;2023-08-21T13:24:19;4.30;;;4.00;;
57337;SDS011;43173;50.980;18.204;2023-08-21T13:26:45;4.00;;;3.60;;
57337;SDS011;43173;50.980;18.204;2023-08-21T13:29:11;5.10;;;4.10;;
57337;SDS011;43173;50.980;18.204;2023-08-21T13:31:36;4.40;;;4.00;;
57337;SDS011;43173;50.980;18.204;2023-08-21T13:34:02;4.80;;;4.00;;
57337;SDS011;43173;50.980;18.204;2023-08-21T13:36:28;4.60;;;4.10;;
57337;SDS011;43173;50.980;18.204;2023-08-21T13:38:54;4.50;;;4.10;;
57337;SDS011;43173;50.980;18.204;2023-08-21T13:41:20;4.50;;;4.10;;
57337;SDS011;43173;50.980;18.204;2023-08-21T13:43:46;4.30;;;3.90;;
57337;SDS011;43173;50.980;18.204;2023-08-21T13:46:11;4.60;;;4.20;;
57337;SDS011;43173;50.980;18.204;2023-08-21T13:48:37;5.00;;;4.10;;
57337;SDS011;43173;50.980;18.204;2023-08-21T13:51:03;6.00;;;4.20;;
57337;SDS011;43173;50.980;18.204;2023-08-21T13:53:28;4.70;;;4.20;;
57337;SDS011;43173;50.980;18.204;2023-08-21T13:55:54;4.40;;;4.00;;
57337;SDS011;43173;50.980;18.204;2023-08-21T13:58:20;5.50;;;3.90;;
57337;SDS011;43173;50.980;18.204;2023-08-21T14:00:47;4.70;;;3.80;;
57337;SDS011;43173;50.980;18.204;2023-08-21T14:03:12;6.20;;;3.90;;
57337;SDS011;43173;50.980;18.204;2023-08-21T14:05:38;4.40;;;4.00;;
57337;SDS011;43173;50.980;18.204;2023-08-21T14:08:04;4.50;;;4.10;;
57337;SDS011;43173;50.980;18.204;2023-08-21T14:10:30;3.90;;;3.60;;
57337;SDS011;43173;50.980;18.204;2023-08-21T14:12:55;4.50;;;3.80;;
57337;SDS011;43173;50.980;18.204;2023-08-21T14:15:22;4.60;;;3.80;;
57337;SDS011;43173;50.980;18.204;2023-08-21T14:17:48;3.90;;;3.50;;
57337;SDS011;43173;50.980;18.204;2023-08-21T14:20:15;4.70;;;3.80;;
57337;SDS011;43173;50.980;18.204;2023-08-21T14:22:40;8.50;;;3.60;;
57337;SDS011;43173;50.980;18.204;2023-08-21T14:25:06;4.80;;;3.30;;
57337;SDS011;43173;50.980;18.204;2023-08-21T14:27:33;4.60;;;3.00;;
57337;SDS011;43173;50.980;18.204;2023-08-21T14:29:59;3.30;;;3.00;;
57337;SDS011;43173;50.980;18.204;2023-08-21T14:32:24;3.60;;;3.20;;
57337;SDS011;43173;50.980;18.204;2023-08-21T14:34:51;3.40;;;3.10;;
57337;SDS011;43173;50.980;18.204;2023-08-21T14:37:21;2.90;;;2.70;;
57337;SDS011;43173;50.980;18.204;2023-08-21T14:39:49;4.80;;;3.10;;
57337;SDS011;43173;50.980;18.204;2023-08-21T14:42:15;4.10;;;3.00;;
57337;SDS011;43173;50.980;18.204;2023-08-21T14:44:41;3.20;;;2.80;;
57337;SDS011;43173;50.980;18.204;2023-08-21T14:47:06;3.40;;;3.00;;
57337;SDS011;43173;50.980;18.204;2023-08-21T14:49:32;3.80;;;2.80;;
57337;SDS011;43173;50.980;18.204;2023-08-21T14:51:58;3.60;;;2.70;;